AIC642 VOMM-VECC
Flight info
| Callsign | AIC642 |
|---|---|
| Flight time | 1h 40m |
| Altitude | 37000 |
| Route | VATMO2A VATMO Q10 CEA |
| Aircraft | B77W/H-SDE1E2E3FGHIJ2J3J4J5M1RWXY/LB1D1 |
Departure
| Time | 2026-04-21 12:49 |
|---|---|
| Airport | Chennai International Airport (VOMM) |
Arrival
| Time | 2026-04-21 14:29 |
|---|---|
| Airport | Netaji Subhash Chandra Bose International Airport (VECC) |
| Time | Latitude | Longitude | Altitude | Speed | Heading |
|---|---|---|---|---|---|
| 2026-04-21 11:58 | 12.98233 | 80.15985 | 51 ft | 0 kts | 160° |
| 2026-04-21 12:42 | 12.98235 | 80.15985 | 60 ft | 2 kts | 160° |
| 2026-04-21 12:42 | 12.98253 | 80.15979 | 51 ft | 4 kts | 166° |
| 2026-04-21 12:42 | 12.98277 | 80.15976 | 51 ft | 2 kts | 200° |
| 2026-04-21 12:42 | 12.98299 | 80.15988 | 51 ft | 4 kts | 226° |
| 2026-04-21 12:43 | 12.98314 | 80.16010 | 51 ft | 4 kts | 248° |
| 2026-04-21 12:43 | 12.98319 | 80.16024 | 51 ft | 0 kts | 248° |
| 2026-04-21 12:45 | 12.98319 | 80.16023 | 51 ft | 0 kts | 248° |
| 2026-04-21 12:45 | 12.98307 | 80.15994 | 51 ft | 11 kts | 248° |
| 2026-04-21 12:46 | 12.98293 | 80.15910 | 60 ft | 12 kts | 276° |
| 2026-04-21 12:46 | 12.98313 | 80.15825 | 54 ft | 12 kts | 285° |
| 2026-04-21 12:46 | 12.98336 | 80.15740 | 56 ft | 12 kts | 285° |
| 2026-04-21 12:46 | 12.98359 | 80.15656 | 56 ft | 12 kts | 285° |
| 2026-04-21 12:47 | 12.98382 | 80.15572 | 57 ft | 12 kts | 285° |
| 2026-04-21 12:47 | 12.98407 | 80.15489 | 55 ft | 12 kts | 296° |
| 2026-04-21 12:47 | 12.98460 | 80.15459 | 53 ft | 7 kts | 11° |
| 2026-04-21 12:47 | 12.98494 | 80.15495 | 55 ft | 8 kts | 70° |
| 2026-04-21 12:48 | 12.98505 | 80.15528 | 57 ft | 10 kts | 71° |
| 2026-04-21 12:48 | 12.98604 | 80.15796 | 52 ft | 79 kts | 70° |
| 2026-04-21 12:48 | 12.98896 | 80.16573 | 54 ft | 151 kts | 69° |
| 2026-04-21 12:48 | 12.99324 | 80.17722 | 322 ft | 178 kts | 73° |
| 2026-04-21 12:49 | 12.99779 | 80.18945 | 883 ft | 192 kts | 72° |
| 2026-04-21 12:49 | 13.00281 | 80.20233 | 1501 ft | 196 kts | 62° |
| 2026-04-21 12:49 | 13.01258 | 80.21203 | 2058 ft | 204 kts | 37° |
| 2026-04-21 12:49 | 13.02507 | 80.22128 | 2292 ft | 232 kts | 40° |
| 2026-04-21 12:50 | 13.03857 | 80.23145 | 2611 ft | 256 kts | 39° |
| 2026-04-21 12:50 | 13.05324 | 80.24249 | 3235 ft | 265 kts | 37° |
| 2026-04-21 12:50 | 13.06821 | 80.25367 | 4082 ft | 267 kts | 37° |
| 2026-04-21 12:50 | 13.08328 | 80.26492 | 4977 ft | 269 kts | 37° |
| 2026-04-21 12:51 | 13.09845 | 80.27627 | 5850 ft | 271 kts | 37° |
| 2026-04-21 12:51 | 13.11369 | 80.28772 | 6675 ft | 274 kts | 37° |
| 2026-04-21 12:51 | 13.12905 | 80.29927 | 7502 ft | 274 kts | 38° |
| 2026-04-21 12:51 | 13.14453 | 80.31094 | 8350 ft | 275 kts | 37° |
| 2026-04-21 12:52 | 13.15986 | 80.32250 | 9167 ft | 278 kts | 37° |
| 2026-04-21 12:52 | 13.17553 | 80.33434 | 9956 ft | 281 kts | 37° |
| 2026-04-21 12:52 | 13.19165 | 80.34653 | 10409 ft | 299 kts | 37° |
| 2026-04-21 12:52 | 13.20915 | 80.35977 | 10591 ft | 326 kts | 37° |
| 2026-04-21 12:53 | 13.22814 | 80.37412 | 10820 ft | 350 kts | 37° |
| 2026-04-21 12:53 | 13.24811 | 80.38922 | 11411 ft | 362 kts | 37° |
| 2026-04-21 12:53 | 13.26868 | 80.40476 | 12211 ft | 369 kts | 37° |
| 2026-04-21 12:53 | 13.28943 | 80.42048 | 13162 ft | 369 kts | 38° |
| 2026-04-21 12:54 | 13.30753 | 80.43927 | 13827 ft | 376 kts | 56° |
| 2026-04-21 12:54 | 13.31884 | 80.46350 | 14602 ft | 377 kts | 68° |
| 2026-04-21 12:54 | 13.32840 | 80.48884 | 15313 ft | 384 kts | 68° |
| 2026-04-21 12:54 | 13.33813 | 80.51432 | 15955 ft | 392 kts | 68° |
| 2026-04-21 12:55 | 13.34823 | 80.54066 | 16666 ft | 400 kts | 68° |
| 2026-04-21 12:55 | 13.35858 | 80.56750 | 17240 ft | 410 kts | 68° |
| 2026-04-21 12:55 | 13.36920 | 80.59498 | 17855 ft | 417 kts | 68° |
| 2026-04-21 12:55 | 13.38003 | 80.62291 | 18480 ft | 423 kts | 68° |
| 2026-04-21 12:56 | 13.39102 | 80.65123 | 19064 ft | 429 kts | 68° |
| 2026-04-21 12:56 | 13.40203 | 80.67956 | 19630 ft | 435 kts | 68° |
| 2026-04-21 12:56 | 13.41334 | 80.70866 | 20206 ft | 441 kts | 68° |
| 2026-04-21 12:56 | 13.42481 | 80.73820 | 20721 ft | 448 kts | 69° |
| 2026-04-21 12:57 | 13.43640 | 80.76802 | 21412 ft | 450 kts | 69° |
| 2026-04-21 12:57 | 13.44803 | 80.79798 | 22066 ft | 453 kts | 69° |
| 2026-04-21 12:57 | 13.45988 | 80.82815 | 22750 ft | 456 kts | 67° |
| 2026-04-21 12:57 | 13.47471 | 80.85731 | 23208 ft | 465 kts | 58° |
| 2026-04-21 12:58 | 13.49377 | 80.88436 | 23660 ft | 471 kts | 51° |
| 2026-04-21 12:58 | 13.51595 | 80.90894 | 24053 ft | 477 kts | 44° |
| 2026-04-21 12:58 | 13.53971 | 80.93262 | 24621 ft | 477 kts | 44° |
| 2026-04-21 12:58 | 13.56370 | 80.95635 | 25133 ft | 480 kts | 44° |
| 2026-04-21 12:59 | 13.58789 | 80.98032 | 25555 ft | 486 kts | 44° |
| 2026-04-21 12:59 | 13.61231 | 81.00462 | 25941 ft | 491 kts | 44° |
| 2026-04-21 12:59 | 13.63692 | 81.02924 | 26362 ft | 496 kts | 44° |
| 2026-04-21 12:59 | 13.66173 | 81.05419 | 26800 ft | 500 kts | 45° |
| 2026-04-21 13:00 | 13.68672 | 81.07937 | 27233 ft | 504 kts | 45° |
| 2026-04-21 13:00 | 13.71185 | 81.10475 | 27605 ft | 509 kts | 45° |
| 2026-04-21 13:00 | 13.73723 | 81.13040 | 27982 ft | 514 kts | 45° |
| 2026-04-21 13:00 | 13.76281 | 81.15626 | 28383 ft | 518 kts | 45° |
| 2026-04-21 13:01 | 13.78861 | 81.18234 | 28793 ft | 521 kts | 45° |
| 2026-04-21 13:01 | 13.81460 | 81.20862 | 29179 ft | 525 kts | 45° |
| 2026-04-21 13:01 | 13.84077 | 81.23509 | 29550 ft | 529 kts | 45° |
| 2026-04-21 13:01 | 13.86709 | 81.26171 | 29884 ft | 532 kts | 45° |
| 2026-04-21 13:02 | 13.89323 | 81.28816 | 30162 ft | 535 kts | 45° |
| 2026-04-21 13:02 | 13.91979 | 81.31504 | 30561 ft | 535 kts | 45° |
| 2026-04-21 13:02 | 13.97272 | 81.36864 | 31526 ft | 531 kts | 45° |
| 2026-04-21 13:03 | 13.99906 | 81.39532 | 31965 ft | 531 kts | 45° |
| 2026-04-21 13:03 | 14.02537 | 81.42198 | 32395 ft | 531 kts | 45° |
| 2026-04-21 13:03 | 14.05166 | 81.44864 | 32826 ft | 530 kts | 45° |
| 2026-04-21 13:03 | 14.07793 | 81.47527 | 33252 ft | 530 kts | 45° |
| 2026-04-21 13:04 | 14.10435 | 81.50209 | 33618 ft | 531 kts | 45° |
| 2026-04-21 13:04 | 14.13067 | 81.52880 | 34020 ft | 530 kts | 45° |
| 2026-04-21 13:04 | 14.15691 | 81.55544 | 34428 ft | 529 kts | 45° |
| 2026-04-21 13:04 | 14.18306 | 81.58200 | 34833 ft | 527 kts | 45° |
| 2026-04-21 13:05 | 14.20917 | 81.60852 | 35193 ft | 527 kts | 45° |
| 2026-04-21 13:05 | 14.23523 | 81.63501 | 35538 ft | 526 kts | 45° |
| 2026-04-21 13:05 | 14.26128 | 81.66149 | 35904 ft | 525 kts | 45° |
| 2026-04-21 13:05 | 14.28730 | 81.68795 | 36327 ft | 523 kts | 45° |
| 2026-04-21 13:06 | 14.31282 | 81.71391 | 36695 ft | 521 kts | 45° |
| 2026-04-21 13:06 | 14.33871 | 81.74026 | 36821 ft | 525 kts | 45° |
| 2026-04-21 13:06 | 14.39124 | 81.79377 | 36819 ft | 534 kts | 45° |
| 2026-04-21 13:07 | 14.44452 | 81.84806 | 36837 ft | 542 kts | 45° |
| 2026-04-21 13:07 | 14.49859 | 81.90319 | 36824 ft | 549 kts | 45° |
| 2026-04-21 13:08 | 14.55292 | 81.95863 | 36825 ft | 554 kts | 45° |
| 2026-04-21 13:08 | 14.60773 | 82.01459 | 36821 ft | 556 kts | 45° |
| 2026-04-21 13:09 | 14.66283 | 82.07089 | 36816 ft | 556 kts | 46° |
| 2026-04-21 13:09 | 14.71787 | 82.12719 | 36820 ft | 556 kts | 46° |
| 2026-04-21 13:10 | 14.77281 | 82.18340 | 36815 ft | 554 kts | 46° |
| 2026-04-21 13:10 | 14.82751 | 82.23943 | 36828 ft | 553 kts | 46° |
| 2026-04-21 13:11 | 14.88224 | 82.29553 | 36818 ft | 554 kts | 46° |
| 2026-04-21 13:11 | 14.93696 | 82.35166 | 36820 ft | 554 kts | 46° |
| 2026-04-21 13:12 | 14.99169 | 82.40785 | 36818 ft | 554 kts | 46° |
| 2026-04-21 13:12 | 15.04637 | 82.46403 | 36820 ft | 554 kts | 46° |
| 2026-04-21 13:13 | 15.10095 | 82.52014 | 36819 ft | 554 kts | 46° |
| 2026-04-21 13:13 | 15.15519 | 82.57596 | 36829 ft | 553 kts | 46° |
| 2026-04-21 13:14 | 15.20985 | 82.63224 | 36828 ft | 554 kts | 46° |
| 2026-04-21 13:14 | 15.26449 | 82.68856 | 36821 ft | 554 kts | 46° |
| 2026-04-21 13:15 | 15.31913 | 82.74491 | 36821 ft | 554 kts | 46° |
| 2026-04-21 13:15 | 15.37338 | 82.80092 | 36826 ft | 553 kts | 46° |
| 2026-04-21 13:16 | 15.42860 | 82.85662 | 36826 ft | 553 kts | 41° |
| 2026-04-21 13:16 | 15.48808 | 82.90728 | 36829 ft | 553 kts | 39° |
| 2026-04-21 13:17 | 15.54822 | 82.95715 | 36830 ft | 554 kts | 39° |
| 2026-04-21 13:17 | 15.60844 | 83.00755 | 36826 ft | 555 kts | 39° |
| 2026-04-21 13:18 | 15.66833 | 83.05818 | 36828 ft | 556 kts | 39° |
| 2026-04-21 13:18 | 15.72790 | 83.10870 | 36828 ft | 556 kts | 39° |
| 2026-04-21 13:19 | 15.78800 | 83.15967 | 36824 ft | 557 kts | 39° |
| 2026-04-21 13:19 | 15.84798 | 83.21054 | 36823 ft | 557 kts | 39° |
| 2026-04-21 13:20 | 15.90770 | 83.26121 | 36831 ft | 557 kts | 39° |
| 2026-04-21 13:20 | 15.96780 | 83.31225 | 36820 ft | 558 kts | 39° |
| 2026-04-21 13:21 | 16.02788 | 83.36333 | 36828 ft | 558 kts | 39° |
| 2026-04-21 13:21 | 16.07786 | 83.40584 | 36828 ft | 558 kts | 39° |
| 2026-04-21 13:22 | 16.13799 | 83.45703 | 36828 ft | 559 kts | 39° |
| 2026-04-21 13:22 | 16.19821 | 83.50834 | 36825 ft | 559 kts | 39° |
| 2026-04-21 13:23 | 16.25841 | 83.55968 | 36834 ft | 559 kts | 39° |
| 2026-04-21 13:23 | 16.31853 | 83.61098 | 36828 ft | 559 kts | 39° |
| 2026-04-21 13:24 | 16.37870 | 83.66237 | 36831 ft | 559 kts | 39° |
| 2026-04-21 13:24 | 16.43838 | 83.71339 | 36827 ft | 559 kts | 39° |
| 2026-04-21 13:25 | 16.49857 | 83.76488 | 36821 ft | 559 kts | 39° |
| 2026-04-21 13:25 | 16.55863 | 83.81630 | 36827 ft | 559 kts | 39° |
| 2026-04-21 13:26 | 16.61867 | 83.86775 | 36832 ft | 559 kts | 39° |
| 2026-04-21 13:26 | 16.67878 | 83.91931 | 36817 ft | 560 kts | 39° |
| 2026-04-21 13:27 | 16.73865 | 83.97071 | 36822 ft | 560 kts | 39° |
| 2026-04-21 13:27 | 16.79886 | 84.02245 | 36826 ft | 560 kts | 39° |
| 2026-04-21 13:28 | 16.85905 | 84.07418 | 36818 ft | 560 kts | 39° |
| 2026-04-21 13:28 | 16.91946 | 84.12563 | 36815 ft | 560 kts | 39° |
| 2026-04-21 13:29 | 16.98000 | 84.17705 | 36822 ft | 560 kts | 39° |
| 2026-04-21 13:29 | 17.04008 | 84.22820 | 36819 ft | 561 kts | 39° |
| 2026-04-21 13:30 | 17.10060 | 84.27984 | 36820 ft | 561 kts | 39° |
| 2026-04-21 13:30 | 17.16104 | 84.33146 | 36814 ft | 561 kts | 38° |
| 2026-04-21 13:31 | 17.22147 | 84.38311 | 36816 ft | 561 kts | 38° |
| 2026-04-21 13:31 | 17.28186 | 84.43478 | 36804 ft | 560 kts | 38° |
| 2026-04-21 13:32 | 17.34223 | 84.48647 | 36818 ft | 560 kts | 38° |
| 2026-04-21 13:32 | 17.40261 | 84.53805 | 36815 ft | 560 kts | 38° |
| 2026-04-21 13:33 | 17.46279 | 84.58925 | 36815 ft | 560 kts | 38° |
| 2026-04-21 13:33 | 17.52331 | 84.64081 | 36811 ft | 560 kts | 38° |
| 2026-04-21 13:34 | 17.58382 | 84.69247 | 36814 ft | 560 kts | 38° |
| 2026-04-21 13:34 | 17.64427 | 84.74413 | 36806 ft | 560 kts | 38° |
| 2026-04-21 13:35 | 17.70430 | 84.79549 | 36814 ft | 560 kts | 38° |
| 2026-04-21 13:35 | 17.76468 | 84.84738 | 36814 ft | 561 kts | 38° |
| 2026-04-21 13:36 | 17.82513 | 84.89941 | 36790 ft | 562 kts | 38° |
| 2026-04-21 13:36 | 17.88560 | 84.95150 | 36810 ft | 562 kts | 38° |
| 2026-04-21 13:37 | 17.94608 | 85.00362 | 36808 ft | 563 kts | 38° |
| 2026-04-21 13:37 | 18.00662 | 85.05585 | 36795 ft | 563 kts | 38° |
| 2026-04-21 13:38 | 18.06676 | 85.10776 | 36789 ft | 563 kts | 38° |
| 2026-04-21 13:38 | 18.12727 | 85.16006 | 36793 ft | 564 kts | 38° |
| 2026-04-21 13:39 | 18.18811 | 85.21268 | 36798 ft | 564 kts | 38° |
| 2026-04-21 13:39 | 18.24873 | 85.26517 | 36791 ft | 565 kts | 38° |
| 2026-04-21 13:40 | 18.30934 | 85.31769 | 36794 ft | 565 kts | 38° |
| 2026-04-21 13:40 | 18.37009 | 85.37039 | 36794 ft | 565 kts | 38° |
| 2026-04-21 13:41 | 18.43092 | 85.42321 | 36789 ft | 567 kts | 38° |
| 2026-04-21 13:41 | 18.49141 | 85.47578 | 36799 ft | 567 kts | 38° |
| 2026-04-21 13:42 | 18.55244 | 85.52886 | 36793 ft | 568 kts | 38° |
| 2026-04-21 13:42 | 18.61352 | 85.58205 | 36800 ft | 569 kts | 38° |
| 2026-04-21 13:43 | 18.67452 | 85.63522 | 36794 ft | 569 kts | 38° |
| 2026-04-21 13:43 | 18.73520 | 85.68816 | 36795 ft | 569 kts | 38° |
| 2026-04-21 13:44 | 18.79609 | 85.74134 | 36796 ft | 569 kts | 38° |
| 2026-04-21 13:44 | 18.85708 | 85.79466 | 36795 ft | 568 kts | 38° |
| 2026-04-21 13:45 | 18.91802 | 85.84799 | 36794 ft | 568 kts | 38° |
| 2026-04-21 13:45 | 18.97910 | 85.90104 | 36794 ft | 568 kts | 38° |
| 2026-04-21 13:46 | 19.04045 | 85.95377 | 36797 ft | 568 kts | 38° |
| 2026-04-21 13:46 | 19.10169 | 86.00650 | 36796 ft | 568 kts | 38° |
| 2026-04-21 13:47 | 19.16256 | 86.05909 | 36791 ft | 569 kts | 38° |
| 2026-04-21 13:47 | 19.22382 | 86.11211 | 36788 ft | 569 kts | 38° |
| 2026-04-21 13:48 | 19.28516 | 86.16526 | 36783 ft | 570 kts | 38° |
| 2026-04-21 13:48 | 19.34654 | 86.21848 | 36791 ft | 570 kts | 38° |
| 2026-04-21 13:49 | 19.40770 | 86.27155 | 36792 ft | 570 kts | 38° |
| 2026-04-21 13:49 | 19.46908 | 86.32487 | 36795 ft | 571 kts | 37° |
| 2026-04-21 13:50 | 19.53055 | 86.37833 | 36790 ft | 572 kts | 37° |
| 2026-04-21 13:50 | 19.59206 | 86.43190 | 36789 ft | 573 kts | 37° |
| 2026-04-21 13:51 | 19.65375 | 86.48560 | 36787 ft | 573 kts | 37° |
| 2026-04-21 13:51 | 19.71512 | 86.53893 | 36790 ft | 573 kts | 37° |
| 2026-04-21 13:52 | 19.77691 | 86.59268 | 36794 ft | 573 kts | 37° |
| 2026-04-21 13:52 | 19.83857 | 86.64642 | 36791 ft | 573 kts | 37° |
| 2026-04-21 13:53 | 19.90017 | 86.70016 | 36790 ft | 573 kts | 37° |
| 2026-04-21 13:53 | 19.96182 | 86.75394 | 36778 ft | 572 kts | 37° |
| 2026-04-21 13:54 | 20.02341 | 86.80765 | 36784 ft | 572 kts | 37° |
| 2026-04-21 13:54 | 20.08453 | 86.86103 | 36769 ft | 572 kts | 37° |
| 2026-04-21 13:55 | 20.14595 | 86.91473 | 36778 ft | 570 kts | 37° |
| 2026-04-21 13:55 | 20.20727 | 86.96843 | 36754 ft | 568 kts | 37° |
| 2026-04-21 13:56 | 20.26826 | 87.02188 | 36764 ft | 566 kts | 37° |
| 2026-04-21 13:56 | 20.32875 | 87.07495 | 36759 ft | 566 kts | 37° |
| 2026-04-21 13:57 | 20.38952 | 87.12832 | 36758 ft | 566 kts | 37° |
| 2026-04-21 13:57 | 20.45028 | 87.18175 | 36772 ft | 566 kts | 37° |
| 2026-04-21 13:58 | 20.51083 | 87.23499 | 36760 ft | 562 kts | 37° |
| 2026-04-21 13:58 | 20.57104 | 87.28791 | 36749 ft | 558 kts | 37° |
| 2026-04-21 13:59 | 20.63086 | 87.34054 | 36743 ft | 555 kts | 37° |
| 2026-04-21 13:59 | 20.69047 | 87.39307 | 36756 ft | 556 kts | 37° |
| 2026-04-21 14:00 | 20.74995 | 87.44555 | 36763 ft | 558 kts | 37° |
| 2026-04-21 14:00 | 20.80996 | 87.49872 | 36779 ft | 560 kts | 39° |
| 2026-04-21 14:01 | 20.86586 | 87.55700 | 36759 ft | 561 kts | 44° |
| 2026-04-21 14:01 | 20.91980 | 87.61719 | 36752 ft | 559 kts | 45° |
| 2026-04-21 14:02 | 20.97371 | 87.67713 | 36755 ft | 558 kts | 44° |
| 2026-04-21 14:03 | 21.05447 | 87.76598 | 36744 ft | 558 kts | 44° |
| 2026-04-21 14:03 | 21.10878 | 87.82568 | 36755 ft | 560 kts | 44° |
| 2026-04-21 14:04 | 21.16320 | 87.88563 | 36754 ft | 561 kts | 44° |
| 2026-04-21 14:04 | 21.21703 | 87.94507 | 36727 ft | 542 kts | 44° |
| 2026-04-21 14:04 | 21.24288 | 87.97366 | 36637 ft | 528 kts | 44° |
| 2026-04-21 14:05 | 21.26795 | 88.00138 | 36253 ft | 521 kts | 44° |
| 2026-04-21 14:05 | 21.29310 | 88.02918 | 35714 ft | 518 kts | 44° |
| 2026-04-21 14:05 | 21.31814 | 88.05686 | 35180 ft | 516 kts | 44° |
| 2026-04-21 14:05 | 21.34304 | 88.08440 | 34680 ft | 513 kts | 44° |
| 2026-04-21 14:06 | 21.36785 | 88.11185 | 34230 ft | 509 kts | 44° |
| 2026-04-21 14:06 | 21.39220 | 88.13884 | 33726 ft | 496 kts | 44° |
| 2026-04-21 14:06 | 21.41601 | 88.16524 | 32815 ft | 487 kts | 44° |
| 2026-04-21 14:06 | 21.43944 | 88.19122 | 31815 ft | 482 kts | 44° |
| 2026-04-21 14:07 | 21.46262 | 88.21693 | 30891 ft | 475 kts | 44° |
| 2026-04-21 14:07 | 21.48556 | 88.24239 | 29838 ft | 474 kts | 44° |
| 2026-04-21 14:07 | 21.50828 | 88.26762 | 29468 ft | 465 kts | 44° |
| 2026-04-21 14:07 | 21.53185 | 88.29103 | 28910 ft | 459 kts | 33° |
| 2026-04-21 14:08 | 21.55832 | 88.30949 | 28473 ft | 450 kts | 24° |
| 2026-04-21 14:08 | 21.57680 | 88.31935 | 28167 ft | 445 kts | 19° |
| 2026-04-21 14:08 | 21.60570 | 88.33029 | 27721 ft | 436 kts | 10° |
| 2026-04-21 14:08 | 21.63488 | 88.33878 | 27290 ft | 433 kts | 9° |
| 2026-04-21 14:09 | 21.67338 | 88.34969 | 26688 ft | 429 kts | 9° |
| 2026-04-21 14:09 | 21.69287 | 88.35523 | 26387 ft | 428 kts | 9° |
| 2026-04-21 14:09 | 21.73083 | 88.36617 | 25818 ft | 425 kts | 10° |
| 2026-04-21 14:09 | 21.74981 | 88.37171 | 25530 ft | 424 kts | 10° |
| 2026-04-21 14:10 | 21.77866 | 88.38020 | 25085 ft | 423 kts | 10° |
| 2026-04-21 14:10 | 21.80699 | 88.38858 | 24650 ft | 422 kts | 10° |
| 2026-04-21 14:10 | 21.83487 | 88.39685 | 24192 ft | 421 kts | 10° |
| 2026-04-21 14:10 | 21.86347 | 88.40534 | 23741 ft | 420 kts | 11° |
| 2026-04-21 14:11 | 21.89128 | 88.41361 | 23308 ft | 419 kts | 11° |
| 2026-04-21 14:11 | 21.91935 | 88.42197 | 22808 ft | 418 kts | 11° |
| 2026-04-21 14:11 | 21.94743 | 88.43034 | 22347 ft | 415 kts | 11° |
| 2026-04-21 14:11 | 21.97492 | 88.43855 | 21873 ft | 402 kts | 11° |
| 2026-04-21 14:12 | 22.00156 | 88.44650 | 21293 ft | 394 kts | 11° |
| 2026-04-21 14:12 | 22.02775 | 88.45428 | 20640 ft | 389 kts | 11° |
| 2026-04-21 14:12 | 22.05372 | 88.46200 | 19985 ft | 384 kts | 11° |
| 2026-04-21 14:12 | 22.07944 | 88.46964 | 19353 ft | 379 kts | 11° |
| 2026-04-21 14:13 | 22.10469 | 88.47716 | 18779 ft | 373 kts | 11° |
| 2026-04-21 14:13 | 22.12938 | 88.48454 | 18111 ft | 365 kts | 11° |
| 2026-04-21 14:13 | 22.15349 | 88.49174 | 17267 ft | 362 kts | 11° |
| 2026-04-21 14:13 | 22.17764 | 88.49896 | 16446 ft | 357 kts | 11° |
| 2026-04-21 14:14 | 22.20147 | 88.50609 | 15690 ft | 352 kts | 11° |
| 2026-04-21 14:14 | 22.22491 | 88.51310 | 14971 ft | 347 kts | 11° |
| 2026-04-21 14:14 | 22.24803 | 88.52001 | 14265 ft | 342 kts | 11° |
| 2026-04-21 14:14 | 22.27086 | 88.52683 | 13626 ft | 337 kts | 11° |
| 2026-04-21 14:15 | 22.29352 | 88.53324 | 13244 ft | 335 kts | 7° |
| 2026-04-21 14:15 | 22.31644 | 88.53671 | 12832 ft | 330 kts | 1° |
| 2026-04-21 14:15 | 22.33927 | 88.53894 | 12439 ft | 328 kts | 1° |
| 2026-04-21 14:15 | 22.36194 | 88.54100 | 12056 ft | 326 kts | 1° |
| 2026-04-21 14:16 | 22.38457 | 88.54312 | 11680 ft | 325 kts | 1° |
| 2026-04-21 14:16 | 22.40670 | 88.54527 | 11309 ft | 323 kts | 2° |
| 2026-04-21 14:16 | 22.42901 | 88.54751 | 10944 ft | 322 kts | 2° |
| 2026-04-21 14:16 | 22.45132 | 88.54980 | 10567 ft | 321 kts | 2° |
| 2026-04-21 14:17 | 22.47348 | 88.55211 | 10234 ft | 319 kts | 2° |
| 2026-04-21 14:17 | 22.49535 | 88.55442 | 10083 ft | 310 kts | 2° |
| 2026-04-21 14:17 | 22.51649 | 88.55666 | 9949 ft | 302 kts | 2° |
| 2026-04-21 14:17 | 22.53713 | 88.55885 | 9814 ft | 293 kts | 2° |
| 2026-04-21 14:18 | 22.55720 | 88.56098 | 9681 ft | 285 kts | 2° |
| 2026-04-21 14:18 | 22.57683 | 88.56305 | 9311 ft | 279 kts | 3° |
| 2026-04-21 14:18 | 22.59588 | 88.56505 | 8657 ft | 279 kts | 3° |
| 2026-04-21 14:18 | 22.61525 | 88.56708 | 7974 ft | 280 kts | 3° |
| 2026-04-21 14:19 | 22.63470 | 88.56912 | 7366 ft | 278 kts | 4° |
| 2026-04-21 14:19 | 22.65398 | 88.57116 | 6797 ft | 277 kts | 4° |
| 2026-04-21 14:19 | 22.67312 | 88.57319 | 6212 ft | 276 kts | 3° |
| 2026-04-21 14:19 | 22.69269 | 88.57525 | 5851 ft | 282 kts | 3° |
| 2026-04-21 14:20 | 22.71234 | 88.57729 | 5485 ft | 284 kts | 3° |
| 2026-04-21 14:20 | 22.73174 | 88.57920 | 5160 ft | 283 kts | 3° |
| 2026-04-21 14:20 | 22.75134 | 88.58113 | 4821 ft | 282 kts | 2° |
| 2026-04-21 14:20 | 22.77077 | 88.58303 | 4502 ft | 280 kts | 3° |
| 2026-04-21 14:21 | 22.78989 | 88.58491 | 4138 ft | 268 kts | 3° |
| 2026-04-21 14:21 | 22.80781 | 88.58669 | 3841 ft | 250 kts | 3° |
| 2026-04-21 14:21 | 22.82473 | 88.58835 | 3620 ft | 238 kts | 2° |
| 2026-04-21 14:21 | 22.84072 | 88.58694 | 3317 ft | 228 kts | 335° |
| 2026-04-21 14:22 | 22.85297 | 88.57712 | 3214 ft | 220 kts | 310° |
| 2026-04-21 14:22 | 22.86354 | 88.56477 | 3078 ft | 225 kts | 310° |
| 2026-04-21 14:22 | 22.87412 | 88.55253 | 2955 ft | 219 kts | 310° |
| 2026-04-21 14:22 | 22.88430 | 88.54063 | 2834 ft | 211 kts | 305° |
| 2026-04-21 14:23 | 22.89004 | 88.52678 | 2747 ft | 199 kts | 274° |
| 2026-04-21 14:23 | 22.89107 | 88.51173 | 2682 ft | 203 kts | 271° |
| 2026-04-21 14:23 | 22.89125 | 88.49673 | 2594 ft | 199 kts | 257° |
| 2026-04-21 14:23 | 22.88498 | 88.48386 | 2538 ft | 194 kts | 220° |
| 2026-04-21 14:24 | 22.87315 | 88.47754 | 2481 ft | 190 kts | 196° |
| 2026-04-21 14:24 | 22.85999 | 88.47468 | 2384 ft | 194 kts | 190° |
| 2026-04-21 14:24 | 22.84643 | 88.47232 | 2113 ft | 200 kts | 189° |
| 2026-04-21 14:24 | 22.83286 | 88.47009 | 1864 ft | 191 kts | 186° |
| 2026-04-21 14:25 | 22.82048 | 88.46839 | 1813 ft | 168 kts | 186° |
| 2026-04-21 14:25 | 22.80932 | 88.46682 | 1750 ft | 152 kts | 185° |
| 2026-04-21 14:25 | 22.79943 | 88.46538 | 1751 ft | 137 kts | 186° |
| 2026-04-21 14:25 | 22.79012 | 88.46411 | 1734 ft | 138 kts | 185° |
| 2026-04-21 14:26 | 22.78066 | 88.46272 | 1720 ft | 134 kts | 185° |
| 2026-04-21 14:26 | 22.77155 | 88.46144 | 1712 ft | 132 kts | 185° |
| 2026-04-21 14:26 | 22.76223 | 88.46053 | 1624 ft | 138 kts | 185° |
| 2026-04-21 14:26 | 22.75267 | 88.45975 | 1459 ft | 136 kts | 185° |
| 2026-04-21 14:27 | 22.74354 | 88.45880 | 1268 ft | 130 kts | 187° |
| 2026-04-21 14:27 | 22.73462 | 88.45729 | 1092 ft | 130 kts | 187° |
| 2026-04-21 14:27 | 22.72556 | 88.45570 | 952 ft | 133 kts | 187° |
| 2026-04-21 14:27 | 22.71637 | 88.45465 | 822 ft | 130 kts | 181° |
| 2026-04-21 14:28 | 22.70718 | 88.45401 | 700 ft | 136 kts | 185° |
| 2026-04-21 14:28 | 22.69784 | 88.45279 | 570 ft | 140 kts | 184° |
| 2026-04-21 14:28 | 22.68799 | 88.45178 | 414 ft | 140 kts | 184° |
| 2026-04-21 14:28 | 22.67836 | 88.45060 | 204 ft | 137 kts | 184° |
| 2026-04-21 14:29 | 22.66911 | 88.44949 | 41 ft | 134 kts | 183° |
| 2026-04-21 14:29 | 22.66069 | 88.44853 | 30 ft | 100 kts | 186° |
| 2026-04-21 14:29 | 22.65561 | 88.44791 | 31 ft | 52 kts | 192° |
| 2026-04-21 14:29 | 22.65317 | 88.44642 | 29 ft | 32 kts | 222° |
| 2026-04-21 14:30 | 22.65134 | 88.44534 | 28 ft | 30 kts | 186° |
| 2026-04-21 14:30 | 22.64934 | 88.44510 | 28 ft | 28 kts | 186° |
| 2026-04-21 14:30 | 22.64741 | 88.44488 | 27 ft | 24 kts | 186° |
| 2026-04-21 14:30 | 22.64674 | 88.44472 | 28 ft | 6 kts | 220° |
| 2026-04-21 14:31 | 22.64664 | 88.44430 | 28 ft | 6 kts | 268° |
| 2026-04-21 14:31 | 22.64665 | 88.44391 | 28 ft | 0 kts | 273° |
| 2026-04-21 14:38 | 22.64665 | 88.44390 | 28 ft | 1 kts | 273° |
| 2026-04-21 14:38 | 22.64653 | 88.44377 | 27 ft | 3 kts | 212° |
| 2026-04-21 14:38 | 22.64626 | 88.44367 | 28 ft | 9 kts | 194° |
| 2026-04-21 14:38 | 22.64542 | 88.44329 | 28 ft | 14 kts | 240° |
| 2026-04-21 14:39 | 22.64549 | 88.44217 | 28 ft | 15 kts | 267° |
| 2026-04-21 14:39 | 22.64464 | 88.44169 | 28 ft | 15 kts | 190° |
| 2026-04-21 14:39 | 22.64359 | 88.44155 | 28 ft | 15 kts | 186° |
| 2026-04-21 14:39 | 22.64262 | 88.44141 | 28 ft | 8 kts | 208° |
| 2026-04-21 14:40 | 22.64252 | 88.44081 | 28 ft | 8 kts | 272° |
| 2026-04-21 14:40 | 22.64253 | 88.44065 | 28 ft | 1 kts | 274° |
| 2026-04-21 14:40 | 22.64253 | 88.44061 | 28 ft | 0 kts | 274° |